Portada
METAR-TAF:

METAR-TAF

Aeropuertos :

Mont-De-Marsan, Francia

latitud: 43-55N, longitud: 000-30W, altitud: 62 m

Observación

El informe se hizo hace 21 minutos, a las 13:30 UTC
Viento 2 kt con dirección variable
Temperatura 13°C
Humedad 67%
Presión 1031 hPa
Visibilidad 10 km o más
Escasas nubes a una altura de 4300 ft

METAR: LFBM 101330Z AUTO VRB02KT 9999 FEW043 13/07 Q1031 NOSIG

Hora: 14:51 (13:51 UTC)

Pronóstico

El informe se hizo hace 5 horas y 51 minutos, a las 08:00 UTC
Pronóstico válido del 10 a las 09 UTC al 11 a las 09 UTC
Viento 3 kt con dirección variable
Visibilidad 10 km o más
Nubes dispersas a una altura de 2500 ft
Cielo nuboso a una altura de 5000 ft
Probabilidad 30% :
Temporalmente
del 11 a las 05 UTC al 11 a las 08 UTC
Visibilidad: 0800 m
niebla

TAF: LFBM 100800Z 1009/1109 VRB03KT 9999 SCT025 BKN050 PROB30 TEMPO 1105/1108 0800 FG

Observaciones y pronósticos meteorológicos de más de 4000 aeropuertos (mensajes METAR y TAF).

Los puntos amarillos y rojos representan las estaciones disponibles.

Ponga el ratón en el punto deseado para ver el nombre de la estación.

Haga clic para ver las observaciones y los pronósticos meteorológicos.

Para cambiar el mapa : haga clic en los botones verdes con una cruz de color negro para hacer un zoom, en el botón verde con un guión para alejar o en las flechas verdes para mapas adyacentes.


METAR-TAF: